createdAt,value
2022-12-16T00:00:22.923Z,19.20
2022-12-16T00:04:26.639Z,14.30
2022-12-16T00:08:32.321Z,15.88
2022-12-16T00:12:35.415Z,15.45
2022-12-16T00:16:38.858Z,15.77
2022-12-16T00:20:46.153Z,13.98
2022-12-16T00:24:50.710Z,13.55
2022-12-16T00:28:54.137Z,13.07
2022-12-16T00:32:57.922Z,14.77
2022-12-16T00:37:01.331Z,14.65
2022-12-16T00:41:06.128Z,12.05
2022-12-16T00:45:10.131Z,14.75
2022-12-16T00:49:13.179Z,13.25
2022-12-16T00:53:16.704Z,12.82
2022-12-16T00:57:21.465Z,14.00
2022-12-16T01:01:25.130Z,14.93
2022-12-16T01:05:28.349Z,13.38
2022-12-16T01:09:31.702Z,14.18
2022-12-16T01:13:36.436Z,13.98
2022-12-16T01:17:39.917Z,13.80
2022-12-16T01:21:43.051Z,14.10
2022-12-16T01:25:46.417Z,13.18
2022-12-16T01:29:51.728Z,13.13
2022-12-16T01:33:55.586Z,10.73
2022-12-16T01:38:01.310Z,13.88
2022-12-16T01:42:04.834Z,12.60
2022-12-16T01:46:15.450Z,10.43
2022-12-16T01:50:20.530Z,12.82
2022-12-16T01:54:27.942Z,11.68
2022-12-16T01:58:35.042Z,11.88
2022-12-16T02:02:39.976Z,10.80
2022-12-16T02:06:43.139Z,12.48
2022-12-16T02:11:01.857Z,11.35
2022-12-16T02:15:25.343Z,12.80
2022-12-16T02:20:05.337Z,10.85
2022-12-16T02:24:52.950Z,12.80
2022-12-16T02:29:22.786Z,12.00
2022-12-16T02:33:47.680Z,8.52
2022-12-16T02:37:58.501Z,10.93
2022-12-16T02:42:08.623Z,13.07
2022-12-16T02:46:12.412Z,11.40
2022-12-16T02:50:23.617Z,11.40
2022-12-16T02:54:28.412Z,12.43
2022-12-16T02:58:41.000Z,12.05
2022-12-16T03:06:56.818Z,13.43
2022-12-16T03:11:04.167Z,12.13
2022-12-16T03:15:09.487Z,11.07
2022-12-16T03:19:14.030Z,12.63
2022-12-16T03:23:23.387Z,12.85
2022-12-16T03:27:30.357Z,12.02
2022-12-16T03:31:42.200Z,10.98
2022-12-16T03:35:51.929Z,10.80
2022-12-16T03:40:02.605Z,11.65
2022-12-16T03:44:06.231Z,10.82
2022-12-16T03:48:11.328Z,11.43
2022-12-16T03:52:14.419Z,12.10
2022-12-16T03:56:19.066Z,10.70
2022-12-16T04:00:23.178Z,11.77
2022-12-16T04:04:26.749Z,11.27
2022-12-16T04:08:30.297Z,11.07
2022-12-16T04:12:52.393Z,10.57
2022-12-16T04:17:13.567Z,11.75
2022-12-16T04:21:33.795Z,10.93
2022-12-16T04:25:39.467Z,11.85
2022-12-16T04:29:57.788Z,13.45
2022-12-16T04:34:33.272Z,11.10
2022-12-16T04:38:53.648Z,12.43
2022-12-16T04:43:14.465Z,10.52
2022-12-16T04:47:36.684Z,11.10
2022-12-16T04:51:57.150Z,11.75
2022-12-16T04:56:17.875Z,10.65
2022-12-16T05:00:39.261Z,10.98
2022-12-16T05:05:01.399Z,9.65
2022-12-16T05:09:22.819Z,10.02
2022-12-16T05:13:43.270Z,9.68
2022-12-16T05:18:03.920Z,10.50
2022-12-16T05:22:25.790Z,11.23
2022-12-16T05:26:46.701Z,13.43
2022-12-16T05:31:07.007Z,12.15
2022-12-16T05:35:33.147Z,12.68
2022-12-16T05:39:55.502Z,10.20
2022-12-16T05:44:16.006Z,10.57
2022-12-16T05:48:36.509Z,12.60
2022-12-16T05:52:57.951Z,11.98
2022-12-16T05:57:20.048Z,11.48
2022-12-16T06:01:40.693Z,12.93
2022-12-16T06:06:35.216Z,13.18
2022-12-16T06:10:56.415Z,11.48
2022-12-16T06:15:18.587Z,14.80
2022-12-16T06:19:39.054Z,12.95
2022-12-16T06:23:59.236Z,12.65
2022-12-16T06:28:20.394Z,12.60
2022-12-16T06:32:42.523Z,11.35
2022-12-16T06:37:03.623Z,12.75
2022-12-16T06:41:24.623Z,12.68
2022-12-16T06:45:45.483Z,14.20
2022-12-16T06:50:07.715Z,12.48
2022-12-16T06:54:28.012Z,13.18
2022-12-16T06:58:49.061Z,12.50
2022-12-16T07:03:09.290Z,12.75
2022-12-16T07:07:33.379Z,13.40
2022-12-16T07:11:54.169Z,13.25
2022-12-16T07:16:14.679Z,14.27
2022-12-16T07:20:35.370Z,12.82
2022-12-16T07:24:57.119Z,13.50
2022-12-16T07:29:18.183Z,9.43
2022-12-16T07:33:38.575Z,13.15
2022-12-16T07:37:59.069Z,14.23
2022-12-16T07:42:20.760Z,14.02
2022-12-16T07:46:41.582Z,11.32
2022-12-16T07:51:01.900Z,13.23
2022-12-16T07:55:23.268Z,13.55
2022-12-16T07:59:45.166Z,11.07
2022-12-16T08:04:06.130Z,13.43
2022-12-16T08:08:35.047Z,12.80
2022-12-16T08:12:56.651Z,13.15
2022-12-16T08:17:19.211Z,12.73
2022-12-16T08:21:40.237Z,13.00
2022-12-16T08:26:01.129Z,11.40
2022-12-16T08:30:22.169Z,14.38
2022-12-16T08:34:43.808Z,13.00
2022-12-16T08:39:04.619Z,13.23
2022-12-16T08:43:25.449Z,11.77
2022-12-16T08:47:46.338Z,13.18
2022-12-16T08:52:08.679Z,10.63
2022-12-16T08:56:29.467Z,12.95
2022-12-16T09:00:52.695Z,13.32
2022-12-16T09:05:12.801Z,13.18
2022-12-16T09:09:34.912Z,13.23
2022-12-16T09:13:55.456Z,11.20
2022-12-16T09:18:16.283Z,10.95
2022-12-16T09:22:37.031Z,11.30
2022-12-16T09:26:59.314Z,8.52
2022-12-16T09:31:20.472Z,7.57
2022-12-16T09:35:41.063Z,8.68
2022-12-16T09:40:01.950Z,8.85
2022-12-16T09:44:34.828Z,8.93
2022-12-16T09:49:05.035Z,9.05
2022-12-16T09:53:31.116Z,8.52
2022-12-16T09:57:54.382Z,8.52
2022-12-16T10:02:18.828Z,9.50
2022-12-16T10:06:52.093Z,10.02
2022-12-16T10:15:49.216Z,8.85
2022-12-16T10:20:19.422Z,10.07
2022-12-16T10:24:51.128Z,9.38
2022-12-16T10:29:21.965Z,10.40
2022-12-16T10:33:53.075Z,9.07
2022-12-16T10:38:15.745Z,9.07
2022-12-16T10:42:43.260Z,9.00
2022-12-16T10:47:04.229Z,8.90
2022-12-16T10:51:31.521Z,8.85
2022-12-16T10:56:06.326Z,8.93
2022-12-16T11:00:29.314Z,9.25
2022-12-16T11:04:54.269Z,9.70
2022-12-16T11:09:34.118Z,8.43
2022-12-16T11:13:56.763Z,10.50
2022-12-16T11:18:22.310Z,8.63
2022-12-16T11:22:43.018Z,9.60
2022-12-16T11:27:12.428Z,9.43
2022-12-16T11:31:35.849Z,9.40
2022-12-16T11:36:00.254Z,9.65
2022-12-16T11:40:27.181Z,9.88
2022-12-16T11:44:52.393Z,8.43
2022-12-16T11:49:24.689Z,9.55
2022-12-16T11:54:04.844Z,9.15
2022-12-16T11:58:36.612Z,10.10
2022-12-16T12:03:03.771Z,8.90
2022-12-16T12:07:44.827Z,9.43
2022-12-16T12:12:12.959Z,9.70
2022-12-16T12:16:39.046Z,10.55
2022-12-16T12:21:09.190Z,12.52
2022-12-16T12:25:41.296Z,12.10
2022-12-16T12:30:16.591Z,11.17
2022-12-16T12:34:47.863Z,9.20
2022-12-16T12:39:21.562Z,10.73
2022-12-16T12:44:14.675Z,9.98
2022-12-16T12:48:41.471Z,11.13
2022-12-16T12:53:21.032Z,9.13
2022-12-16T12:57:44.669Z,9.60
2022-12-16T13:02:10.075Z,11.35
2022-12-16T13:06:34.155Z,10.52
2022-12-16T13:10:56.556Z,10.55
2022-12-16T13:15:24.388Z,10.93
2022-12-16T13:20:04.270Z,12.75
2022-12-16T13:24:39.739Z,12.30
2022-12-16T13:29:11.992Z,12.10
2022-12-16T13:33:51.265Z,12.50
2022-12-16T13:38:15.449Z,10.70
2022-12-16T13:43:12.942Z,10.55
2022-12-16T13:47:49.081Z,11.57
2022-12-16T13:52:20.151Z,10.73
2022-12-16T13:56:48.692Z,10.23
2022-12-16T14:01:23.645Z,11.55
2022-12-16T14:05:47.891Z,11.43
2022-12-16T14:10:17.485Z,10.73
2022-12-16T14:14:44.718Z,11.73
2022-12-16T14:19:20.412Z,11.63
2022-12-16T14:23:58.849Z,10.68
2022-12-16T14:28:20.275Z,9.82
2022-12-16T14:32:46.946Z,10.80
2022-12-16T14:37:09.706Z,10.57
2022-12-16T14:45:54.247Z,11.23
2022-12-16T14:50:16.728Z,12.30
2022-12-16T14:54:41.148Z,10.50
2022-12-16T14:59:13.325Z,11.48
2022-12-16T15:03:39.952Z,11.27
2022-12-16T15:08:03.183Z,11.07
2022-12-16T15:12:26.031Z,11.80
2022-12-16T15:21:18.229Z,9.02
2022-12-16T15:25:43.230Z,9.88
2022-12-16T15:30:12.345Z,12.65
2022-12-16T15:34:40.992Z,10.52
2022-12-16T15:39:02.160Z,12.00
2022-12-16T15:43:24.026Z,12.23
2022-12-16T15:47:46.853Z,10.13
2022-12-16T15:56:36.492Z,12.35
2022-12-16T16:00:58.769Z,11.70
2022-12-16T16:05:19.831Z,9.85
2022-12-16T16:09:41.793Z,11.43
2022-12-16T16:14:08.271Z,11.97
2022-12-16T16:18:32.800Z,12.65
2022-12-16T16:22:53.570Z,13.27
2022-12-16T16:27:15.713Z,10.48
2022-12-16T16:31:36.439Z,13.15
2022-12-16T16:35:58.911Z,10.77
2022-12-16T16:40:20.674Z,12.68
2022-12-16T16:44:40.601Z,12.27
2022-12-16T16:49:02.078Z,13.13
2022-12-16T16:53:23.807Z,15.15
2022-12-16T16:57:45.750Z,17.00
2022-12-16T17:02:06.255Z,13.63
2022-12-16T17:06:27.158Z,17.45
2022-12-16T17:10:49.226Z,18.05
2022-12-16T17:15:09.604Z,16.52
2022-12-16T17:19:29.871Z,17.30
2022-12-16T17:23:50.935Z,16.83
2022-12-16T17:28:09.326Z,16.63
2022-12-16T17:32:30.767Z,18.40
2022-12-16T17:36:51.468Z,19.15
2022-12-16T17:41:12.587Z,17.98
2022-12-16T17:45:34.400Z,18.80
2022-12-16T17:49:55.109Z,18.73
2022-12-16T17:54:23.915Z,17.88
2022-12-16T17:58:50.325Z,18.75
2022-12-16T18:03:12.570Z,17.65
2022-12-16T18:07:33.126Z,19.05
2022-12-16T18:11:54.104Z,20.65
2022-12-16T18:16:15.116Z,18.77
2022-12-16T18:20:37.327Z,18.77
2022-12-16T18:24:57.804Z,18.00
2022-12-16T18:29:18.337Z,17.35
2022-12-16T18:33:38.442Z,16.30
2022-12-16T18:38:00.792Z,16.77
2022-12-16T18:42:21.501Z,18.77
2022-12-16T18:46:44.706Z,20.73
2022-12-16T18:51:12.233Z,18.63
2022-12-16T18:55:34.525Z,17.30
2022-12-16T18:59:56.310Z,19.17
2022-12-16T19:04:17.321Z,18.73
2022-12-16T19:08:38.813Z,18.60
2022-12-16T19:13:00.597Z,17.38
2022-12-16T19:17:21.884Z,19.80
2022-12-16T19:21:46.904Z,18.05
2022-12-16T19:26:16.090Z,18.73
2022-12-16T19:30:44.632Z,16.52
2022-12-16T19:35:18.326Z,17.52
2022-12-16T19:39:40.429Z,18.27
2022-12-16T19:48:45.855Z,18.90
2022-12-16T19:53:06.897Z,18.55
2022-12-16T19:57:28.179Z,16.35
2022-12-16T20:01:49.159Z,15.35
2022-12-16T20:06:20.283Z,16.67
2022-12-16T20:10:41.692Z,18.73
2022-12-16T20:15:01.942Z,16.58
2022-12-16T20:19:22.790Z,17.08
2022-12-16T20:23:44.848Z,15.27
2022-12-16T20:28:05.738Z,14.38
2022-12-16T20:32:26.754Z,17.73
2022-12-16T20:36:46.877Z,15.93
2022-12-16T20:41:16.505Z,18.40
2022-12-16T20:45:38.547Z,16.83
2022-12-16T20:49:59.545Z,18.45
2022-12-16T20:54:20.432Z,14.85
2022-12-16T20:58:42.764Z,16.08
2022-12-16T21:03:03.316Z,16.77
2022-12-16T21:07:38.853Z,15.05
2022-12-16T21:11:59.446Z,18.05
2022-12-16T21:16:23.852Z,16.77
2022-12-16T21:20:44.207Z,15.32
2022-12-16T21:25:04.907Z,17.08
2022-12-16T21:29:25.796Z,17.42
2022-12-16T21:33:48.203Z,18.13
2022-12-16T21:42:35.077Z,12.27
2022-12-16T21:47:00.731Z,14.32
2022-12-16T21:51:22.918Z,14.90
2022-12-16T21:55:52.990Z,14.18
2022-12-16T22:00:15.833Z,14.18
2022-12-16T22:04:40.082Z,11.93
2022-12-16T22:09:06.323Z,14.70
2022-12-16T22:13:27.035Z,17.13
2022-12-16T22:18:01.950Z,15.23
2022-12-16T22:22:22.613Z,14.15
2022-12-16T22:26:45.081Z,14.88
2022-12-16T22:31:15.810Z,16.60
2022-12-16T22:35:36.942Z,14.27
2022-12-16T22:39:57.290Z,15.35
2022-12-16T22:44:21.610Z,17.15
2022-12-16T22:48:42.033Z,17.52
2022-12-16T22:53:02.757Z,15.80
2022-12-16T22:57:23.646Z,19.92
2022-12-16T23:01:46.061Z,19.30
2022-12-16T23:06:06.368Z,16.45
2022-12-16T23:10:27.649Z,18.88
2022-12-16T23:14:48.344Z,19.10
2022-12-16T23:19:11.312Z,17.63
2022-12-16T23:23:31.954Z,17.75
2022-12-16T23:27:52.545Z,17.70
2022-12-16T23:32:14.380Z,17.90
2022-12-16T23:36:36.051Z,16.77
2022-12-16T23:40:56.634Z,17.58
2022-12-16T23:45:17.454Z,15.98
2022-12-16T23:49:38.108Z,15.15
2022-12-16T23:54:05.317Z,13.43
2022-12-16T23:58:25.984Z,17.67
